Detall de PIREP

Printer-friendly versionPDF version

[2008/12/10 08:13:00]
Flight IATA:CT0001
Pilot Number:041
Company ICAO:CAT
Aircraft Type:C172/A
PAX:2
Departing Airport: LELL
Destination Airport: LEMS
Alternate Airport:LEIG
Online: VATSIM
Route:TERRASSA DIRECT
Flight Level:A4000
No Slew and time accel
No pause
Crash detect
Detect pilot in Cockpit between each 30 and 45 minutes
08:13 Zero fuel Weight: 1990 Lbs, Fuel Weight: 317 Lbs
08:13 VATSIM:LELL 100800Z VRB02KT 6000 FEW015 SCT025 BKN060 06/04 Q1009 REDZ
08:13 VATSIM:No METAR available for LEMS.
08:13 VOICE CATALONIAN
08:14 Parking Brakes off
08:18 Take-off
08:18 Take off Weight: 2306 Lbs
08:18 Wind: 347º @ 002 Knots Heading: 303º
08:18 POS N41º 31´ 19´´ E002º 06´ 10´´
08:18 Flaps:1 at 83 Knots
08:18 Flaps:0 at 78 Knots
08:30 Flaps:1 at 85 Knots
08:32 Flaps:2 at 70 Knots
08:33 Wind:347º@002 Knots Heading: 254º Ground Speed: 066 Knots Altitude 958 ft
08:33
TouchDown:Rate -386 ft/min Speed: 56 Knots
08:33 VATSIM:No METAR available for LEMS.
08:33 Land
08:33 Wind:347º@002 Knots
08:33 Heading: 289º
08:33 Flight Duration: 00:15
08:33 Landing Weight: 2297 Lbs
08:33 POS N41º 46´ 28´´ E001º 53´ 09´´
08:35 Parking brakes on
08:35 Block to Block Duration: 00:21
08:35 Final Fuel: 306 Lbls
08:35 Spent Fuel: 11 Lbls
08:35 Flight Length: 20 NM
08:35 TOD Land Length: 20 NM

Exportar CSV

Powered by Drupal - Modified by Danger4k